createdAt,value
2022-11-30T01:25:25.619Z,1020.47
2022-11-30T01:26:25.563Z,1020.49
2022-11-30T01:27:25.579Z,1020.46
2022-11-30T01:28:25.536Z,1020.49
2022-11-30T01:29:25.555Z,1020.50
2022-11-30T01:30:25.518Z,1020.49
2022-11-30T01:31:25.537Z,1020.48
2022-11-30T01:32:25.489Z,1020.53
2022-11-30T01:33:25.555Z,1020.52
2022-11-30T01:34:25.494Z,1020.49
2022-11-30T01:35:25.456Z,1020.51
2022-11-30T01:36:25.454Z,1020.51
2022-11-30T01:37:25.464Z,1020.52
2022-11-30T01:38:25.439Z,1020.53
2022-11-30T01:39:25.449Z,1020.56
2022-11-30T01:40:25.409Z,1020.55
2022-11-30T01:41:25.405Z,1020.56
2022-11-30T01:42:25.424Z,1020.52
2022-11-30T01:43:25.384Z,1020.53
2022-11-30T01:44:25.346Z,1020.52
2022-11-30T01:45:25.432Z,1020.53
2022-11-30T01:46:25.373Z,1020.54
2022-11-30T01:47:25.350Z,1020.55
2022-11-30T01:48:25.359Z,1020.52
2022-11-30T01:49:25.309Z,1020.57
2022-11-30T01:50:25.263Z,1020.59
2022-11-30T01:51:25.285Z,1020.55
2022-11-30T01:52:25.263Z,1020.59
2022-11-30T01:53:25.283Z,1020.55
2022-11-30T01:54:25.240Z,1020.53
2022-11-30T01:55:25.241Z,1020.56
2022-11-30T01:56:25.225Z,1020.54
2022-11-30T01:57:25.210Z,1020.56
2022-11-30T01:58:25.161Z,1020.59
2022-11-30T01:59:25.161Z,1020.65
2022-11-30T02:00:25.167Z,1020.66
2022-11-30T02:01:25.161Z,1020.69
2022-11-30T02:02:25.195Z,1020.70
2022-11-30T02:03:25.107Z,1020.68
2022-11-30T02:04:25.119Z,1020.78
2022-11-30T02:05:25.103Z,1020.74
2022-11-30T02:06:25.098Z,1020.81
2022-11-30T02:07:25.163Z,1020.79
2022-11-30T02:08:25.137Z,1020.82
2022-11-30T02:09:25.040Z,1020.79
2022-11-30T02:10:25.035Z,1020.79
2022-11-30T02:11:25.044Z,1020.82
2022-11-30T02:12:25.037Z,1020.79
2022-11-30T02:13:24.981Z,1020.81
2022-11-30T02:14:25.021Z,1020.79
2022-11-30T02:15:25.053Z,1020.79
2022-11-30T02:16:24.983Z,1020.83
2022-11-30T02:17:24.949Z,1020.81
2022-11-30T02:18:24.939Z,1020.83
2022-11-30T02:19:24.944Z,1020.81
2022-11-30T02:20:24.912Z,1020.87
2022-11-30T02:21:24.886Z,1020.92
2022-11-30T02:22:24.923Z,1020.88
2022-11-30T02:23:24.868Z,1020.92
2022-11-30T02:24:24.874Z,1020.89
2022-11-30T02:25:24.867Z,1020.84
2022-11-30T02:26:24.839Z,1020.87
2022-11-30T02:27:24.818Z,1020.89
2022-11-30T02:28:24.856Z,1020.83
2022-11-30T02:29:24.805Z,1020.80
2022-11-30T02:30:24.824Z,1020.81
2022-11-30T02:31:24.805Z,1020.78
2022-11-30T02:32:24.760Z,1020.76
2022-11-30T02:33:24.767Z,1020.74
2022-11-30T02:34:24.740Z,1020.73
2022-11-30T02:35:24.738Z,1020.71
2022-11-30T02:36:24.732Z,1020.68
2022-11-30T02:37:24.691Z,1020.68
2022-11-30T02:38:24.684Z,1020.70
2022-11-30T02:39:24.657Z,1020.70
2022-11-30T02:40:24.684Z,1020.70
2022-11-30T02:41:24.675Z,1020.70
2022-11-30T02:42:24.619Z,1020.73
2022-11-30T02:43:24.632Z,1020.75
2022-11-30T02:44:24.589Z,1020.76
2022-11-30T02:45:24.606Z,1020.79
2022-11-30T02:46:24.646Z,1020.78
2022-11-30T02:47:24.557Z,1020.80
2022-11-30T02:48:24.557Z,1020.76
2022-11-30T02:49:24.527Z,1020.79
2022-11-30T02:50:24.556Z,1020.77
2022-11-30T02:51:24.567Z,1020.76
2022-11-30T02:52:24.529Z,1020.77
2022-11-30T02:53:24.501Z,1020.71
2022-11-30T02:54:24.491Z,1020.72
2022-11-30T02:55:24.459Z,1020.73
2022-11-30T02:56:24.468Z,1020.76
2022-11-30T02:57:24.469Z,1020.75
2022-11-30T02:58:24.421Z,1020.75
2022-11-30T02:59:24.410Z,1020.77
2022-11-30T03:00:24.404Z,1020.77
2022-11-30T03:01:24.436Z,1020.78
2022-11-30T03:02:24.445Z,1020.77
2022-11-30T03:03:24.412Z,1020.75
2022-11-30T03:04:24.358Z,1020.74
2022-11-30T03:05:24.346Z,1020.76
2022-11-30T03:06:24.335Z,1020.81
2022-11-30T03:07:24.388Z,1020.77
2022-11-30T03:08:24.321Z,1020.79
2022-11-30T03:09:24.313Z,1020.78
2022-11-30T03:10:24.294Z,1020.77
2022-11-30T03:11:24.247Z,1020.79
2022-11-30T03:12:24.260Z,1020.76
2022-11-30T03:13:24.291Z,1020.80
2022-11-30T03:14:24.233Z,1020.77
2022-11-30T03:15:24.224Z,1020.75
2022-11-30T03:16:24.267Z,1020.80
2022-11-30T03:17:24.225Z,1020.79
2022-11-30T03:18:24.190Z,1020.77
2022-11-30T03:19:24.166Z,1020.81
2022-11-30T03:20:24.157Z,1020.78
2022-11-30T03:21:24.141Z,1020.77
2022-11-30T03:22:35.986Z,1020.77
2022-11-30T03:23:24.538Z,1020.81
2022-11-30T03:25:31.647Z,1020.77
2022-11-30T03:26:24.130Z,1020.76
2022-11-30T03:27:24.079Z,1020.82
2022-11-30T03:28:24.130Z,1020.79
2022-11-30T03:29:24.061Z,1020.78
2022-11-30T03:30:24.027Z,1020.83
2022-11-30T03:31:24.117Z,1020.81
2022-11-30T03:32:23.991Z,1020.84
2022-11-30T03:33:23.996Z,1020.81
2022-11-30T03:34:24.023Z,1020.84
2022-11-30T03:35:24.020Z,1020.81
2022-11-30T03:36:23.957Z,1020.83
2022-11-30T03:37:23.989Z,1020.85
2022-11-30T03:38:23.928Z,1020.83
2022-11-30T03:39:23.899Z,1020.84
2022-11-30T03:40:23.888Z,1020.85
2022-11-30T03:41:23.891Z,1020.83
2022-11-30T03:42:23.886Z,1020.82
2022-11-30T03:43:23.904Z,1020.84
2022-11-30T03:44:23.828Z,1020.85
2022-11-30T03:45:23.833Z,1020.85
2022-11-30T03:46:23.877Z,1020.84
2022-11-30T03:47:23.829Z,1020.86
2022-11-30T03:48:23.836Z,1020.84
2022-11-30T03:49:23.803Z,1020.86
2022-11-30T03:50:23.778Z,1020.86
2022-11-30T03:51:23.747Z,1020.87
2022-11-30T03:52:23.757Z,1020.86
2022-11-30T03:53:23.727Z,1020.82
2022-11-30T03:54:23.734Z,1020.86
2022-11-30T03:55:23.741Z,1020.87
2022-11-30T03:56:23.703Z,1020.87
2022-11-30T03:57:23.716Z,1020.90
2022-11-30T03:58:23.676Z,1020.91
2022-11-30T03:59:23.652Z,1020.88
2022-11-30T04:00:23.718Z,1020.95
2022-11-30T04:01:23.773Z,1020.92
2022-11-30T04:02:23.679Z,1020.95
2022-11-30T04:03:23.653Z,1020.97
2022-11-30T04:04:23.611Z,1020.94
2022-11-30T04:05:23.570Z,1020.95
2022-11-30T04:06:23.584Z,1020.96
2022-11-30T04:07:23.621Z,1020.95
2022-11-30T04:08:23.557Z,1020.97
2022-11-30T04:09:23.550Z,1020.99
2022-11-30T04:10:23.514Z,1020.98
2022-11-30T04:11:23.499Z,1021.01
2022-11-30T04:12:23.480Z,1021.02
2022-11-30T04:13:23.474Z,1021.06
2022-11-30T04:14:23.498Z,1021.06
2022-11-30T04:15:23.432Z,1021.06
2022-11-30T04:16:23.476Z,1021.01
2022-11-30T04:17:23.446Z,1021.02
2022-11-30T04:18:23.409Z,1021.02
2022-11-30T04:19:23.441Z,1021.03
2022-11-30T04:20:23.395Z,1021.04
2022-11-30T04:21:23.390Z,1021.06
2022-11-30T04:22:23.368Z,1021.03
2022-11-30T04:23:23.390Z,1021.04
2022-11-30T04:24:23.357Z,1021.07
2022-11-30T04:25:23.317Z,1021.06
2022-11-30T04:26:23.336Z,1021.07
2022-11-30T04:27:23.341Z,1021.09
2022-11-30T04:28:23.305Z,1021.03
2022-11-30T04:29:23.278Z,1021.02
2022-11-30T04:30:23.255Z,1021.06
2022-11-30T04:31:23.266Z,1021.08
2022-11-30T04:32:23.260Z,1021.09
2022-11-30T04:33:23.239Z,1021.08
2022-11-30T04:34:23.227Z,1021.07
2022-11-30T04:35:23.197Z,1021.09
2022-11-30T04:36:23.188Z,1021.08
2022-11-30T04:37:23.188Z,1021.11
2022-11-30T04:38:23.164Z,1021.07
2022-11-30T04:39:23.203Z,1021.07
2022-11-30T04:40:23.152Z,1021.10
2022-11-30T04:41:23.119Z,1021.06
2022-11-30T04:42:23.104Z,1021.09
2022-11-30T04:43:23.119Z,1021.11
2022-11-30T04:44:23.071Z,1021.12
2022-11-30T04:45:23.064Z,1021.09
2022-11-30T04:46:23.062Z,1021.08
2022-11-30T04:47:23.993Z,1021.14
2022-11-30T04:48:23.053Z,1021.14
2022-11-30T04:49:23.030Z,1021.12
2022-11-30T04:50:23.008Z,1021.13
2022-11-30T04:51:22.969Z,1021.15
2022-11-30T04:52:22.964Z,1021.11
2022-11-30T04:53:22.971Z,1021.14
2022-11-30T04:54:22.981Z,1021.12
2022-11-30T04:55:22.934Z,1021.16
2022-11-30T04:56:22.901Z,1021.20
2022-11-30T04:57:22.910Z,1021.22
2022-11-30T04:58:22.903Z,1021.21
2022-11-30T04:59:22.885Z,1021.21
2022-11-30T05:00:22.885Z,1021.18
2022-11-30T05:01:22.935Z,1021.19
2022-11-30T05:02:22.872Z,1021.26
2022-11-30T05:03:22.829Z,1021.22
2022-11-30T05:04:22.937Z,1021.24
2022-11-30T05:05:22.795Z,1021.24
2022-11-30T05:06:22.817Z,1021.24
2022-11-30T05:07:22.832Z,1021.23
2022-11-30T05:08:22.782Z,1021.21
2022-11-30T05:09:22.777Z,1021.22
2022-11-30T05:10:22.747Z,1021.21
2022-11-30T05:11:22.754Z,1021.24
2022-11-30T05:12:22.729Z,1021.21
2022-11-30T05:13:22.703Z,1021.19
2022-11-30T05:14:22.691Z,1021.23
2022-11-30T05:15:22.664Z,1021.24
2022-11-30T05:16:22.709Z,1021.24
2022-11-30T05:17:31.351Z,1021.25
2022-11-30T05:18:22.654Z,1021.22
2022-11-30T05:19:22.655Z,1021.27
2022-11-30T05:20:22.626Z,1021.24
2022-11-30T05:21:22.616Z,1021.29
2022-11-30T05:22:22.607Z,1021.30
2022-11-30T05:23:22.624Z,1021.31
2022-11-30T05:24:22.580Z,1021.31
2022-11-30T05:25:22.549Z,1021.27
2022-11-30T05:26:22.594Z,1021.30
2022-11-30T05:27:22.980Z,1021.31
2022-11-30T05:28:22.569Z,1021.27
2022-11-30T05:29:22.512Z,1021.28
2022-11-30T05:30:22.497Z,1021.30
2022-11-30T05:31:22.522Z,1021.31
2022-11-30T05:32:22.471Z,1021.30
2022-11-30T05:33:22.457Z,1021.31
2022-11-30T05:34:22.430Z,1021.32
2022-11-30T05:35:22.455Z,1021.32
2022-11-30T05:36:22.433Z,1021.34
2022-11-30T05:37:22.406Z,1021.31
2022-11-30T05:38:22.407Z,1021.35
2022-11-30T05:39:22.371Z,1021.33
2022-11-30T05:40:22.377Z,1021.35
2022-11-30T05:41:22.361Z,1021.29
2022-11-30T05:42:22.344Z,1021.32
2022-11-30T05:43:22.322Z,1021.33
2022-11-30T05:44:22.315Z,1021.31
2022-11-30T05:45:22.330Z,1021.29
2022-11-30T05:46:22.342Z,1021.26
2022-11-30T05:47:22.278Z,1021.28
2022-11-30T05:48:22.281Z,1021.28
2022-11-30T05:49:22.247Z,1021.24
2022-11-30T05:50:22.227Z,1021.30
2022-11-30T05:51:22.273Z,1021.29
2022-11-30T05:52:22.244Z,1021.32
2022-11-30T05:53:22.190Z,1021.33
2022-11-30T05:54:22.203Z,1021.32
2022-11-30T05:55:22.178Z,1021.35
2022-11-30T05:56:22.187Z,1021.34
2022-11-30T05:57:22.172Z,1021.36
2022-11-30T05:58:22.131Z,1021.34
2022-11-30T05:59:22.127Z,1021.35
2022-11-30T06:00:22.126Z,1021.38
2022-11-30T06:01:22.108Z,1021.36
2022-11-30T06:02:26.695Z,1021.36
2022-11-30T06:03:23.158Z,1021.38
2022-11-30T06:04:22.041Z,1021.35
2022-11-30T06:05:22.049Z,1021.37
2022-11-30T06:06:22.033Z,1021.38
2022-11-30T06:07:22.074Z,1021.44
2022-11-30T06:08:21.990Z,1021.45
2022-11-30T06:09:22.022Z,1021.48
2022-11-30T06:10:21.979Z,1021.47
2022-11-30T06:11:21.990Z,1021.45
2022-11-30T06:12:21.933Z,1021.48
2022-11-30T06:13:27.427Z,1021.44
2022-11-30T06:14:22.948Z,1021.43
2022-11-30T06:15:22.076Z,1021.43
2022-11-30T06:16:21.926Z,1021.42
2022-11-30T06:17:21.999Z,1021.44
2022-11-30T06:18:21.882Z,1021.44
2022-11-30T06:19:21.865Z,1021.43
2022-11-30T06:20:21.880Z,1021.44
2022-11-30T06:21:24.618Z,1021.45
2022-11-30T06:22:21.821Z,1021.39
2022-11-30T06:23:21.804Z,1021.44
2022-11-30T06:24:21.783Z,1021.39
2022-11-30T06:25:21.819Z,1021.42
2022-11-30T06:26:21.788Z,1021.43
2022-11-30T06:27:21.744Z,1021.41
2022-11-30T06:28:21.771Z,1021.42
2022-11-30T06:29:21.772Z,1021.42
2022-11-30T06:30:21.736Z,1021.44
2022-11-30T06:31:21.802Z,1021.42
2022-11-30T06:32:22.017Z,1021.43
2022-11-30T06:33:21.668Z,1021.42
2022-11-30T06:34:21.841Z,1021.42
2022-11-30T06:35:21.661Z,1021.43
2022-11-30T06:36:21.647Z,1021.37
2022-11-30T06:37:21.645Z,1021.42
2022-11-30T06:38:21.611Z,1021.44
2022-11-30T06:39:43.057Z,1021.45
2022-11-30T06:40:22.575Z,1021.45
2022-11-30T06:41:21.574Z,1021.47
2022-11-30T06:42:21.579Z,1021.47
2022-11-30T06:43:21.574Z,1021.46
2022-11-30T06:44:21.532Z,1021.48
2022-11-30T06:45:21.527Z,1021.48
2022-11-30T06:46:21.500Z,1021.50
2022-11-30T06:47:21.532Z,1021.48
2022-11-30T06:48:21.483Z,1021.47
2022-11-30T06:49:21.489Z,1021.51
2022-11-30T06:50:21.456Z,1021.51
2022-11-30T06:51:21.453Z,1021.50
2022-11-30T06:52:21.464Z,1021.50
2022-11-30T06:53:21.443Z,1021.55
2022-11-30T06:54:21.413Z,1021.54
2022-11-30T06:55:21.394Z,1021.56
2022-11-30T06:56:21.379Z,1021.53
2022-11-30T06:57:21.368Z,1021.57
2022-11-30T06:58:21.353Z,1021.59
2022-11-30T06:59:21.361Z,1021.59
2022-11-30T07:00:21.342Z,1021.61
2022-11-30T07:01:21.394Z,1021.57
2022-11-30T07:02:21.332Z,1021.56
2022-11-30T07:03:21.304Z,1021.59
2022-11-30T07:04:21.312Z,1021.56
2022-11-30T07:05:21.281Z,1021.59
2022-11-30T07:06:21.260Z,1021.61
2022-11-30T07:07:21.318Z,1021.60
2022-11-30T07:08:21.243Z,1021.64
2022-11-30T07:09:21.252Z,1021.64
2022-11-30T07:10:21.226Z,1021.66
2022-11-30T07:11:21.192Z,1021.66
2022-11-30T07:12:21.191Z,1021.68
2022-11-30T07:13:21.199Z,1021.64
2022-11-30T07:14:21.153Z,1021.63
2022-11-30T07:15:21.138Z,1021.65
2022-11-30T07:16:21.194Z,1021.59
2022-11-30T07:17:21.121Z,1021.65
2022-11-30T07:18:21.115Z,1021.65
2022-11-30T07:19:21.079Z,1021.67
2022-11-30T07:20:21.070Z,1021.65
2022-11-30T07:21:21.063Z,1021.63
2022-11-30T07:22:21.044Z,1021.67
2022-11-30T07:23:21.052Z,1021.66
2022-11-30T07:24:21.027Z,1021.67
2022-11-30T07:25:21.017Z,1021.66
2022-11-30T07:26:21.001Z,1021.65
2022-11-30T07:27:21.012Z,1021.68
2022-11-30T07:28:20.973Z,1021.69
2022-11-30T07:29:20.969Z,1021.68
2022-11-30T07:30:20.938Z,1021.69
2022-11-30T07:31:20.970Z,1021.70
2022-11-30T07:32:20.941Z,1021.69
2022-11-30T07:33:20.912Z,1021.71
2022-11-30T07:34:20.959Z,1021.70
2022-11-30T07:35:20.871Z,1021.74
2022-11-30T07:36:20.859Z,1021.71
2022-11-30T07:37:20.856Z,1021.75
2022-11-30T07:38:20.837Z,1021.81
2022-11-30T07:39:20.825Z,1021.80
2022-11-30T07:40:20.993Z,1021.84
2022-11-30T07:41:20.799Z,1021.81
2022-11-30T07:42:20.796Z,1021.80
2022-11-30T07:43:20.805Z,1021.83
2022-11-30T07:44:20.803Z,1021.83
2022-11-30T07:45:20.743Z,1021.85
2022-11-30T07:46:20.803Z,1021.90
2022-11-30T07:47:20.728Z,1021.90
2022-11-30T07:48:20.711Z,1021.89
2022-11-30T07:49:20.695Z,1021.92
2022-11-30T07:50:20.690Z,1021.90
2022-11-30T07:51:20.693Z,1021.91
2022-11-30T07:52:20.681Z,1021.92
2022-11-30T07:53:20.680Z,1021.93
2022-11-30T07:54:20.645Z,1021.92
2022-11-30T07:55:20.636Z,1021.93
2022-11-30T07:56:20.630Z,1021.91
2022-11-30T07:57:20.610Z,1021.94
2022-11-30T07:58:20.608Z,1021.93
2022-11-30T07:59:20.576Z,1021.96
2022-11-30T08:00:20.548Z,1021.97
2022-11-30T08:01:20.667Z,1021.97
2022-11-30T08:02:20.740Z,1022.01
2022-11-30T08:03:20.584Z,1022.03
2022-11-30T08:04:20.524Z,1022.01
2022-11-30T08:05:20.500Z,1022.07
2022-11-30T08:06:20.483Z,1022.04
2022-11-30T08:07:20.485Z,1022.03
2022-11-30T08:08:20.469Z,1022.06
2022-11-30T08:09:20.966Z,1022.07
2022-11-30T08:10:20.436Z,1022.10
2022-11-30T08:11:20.415Z,1022.08
2022-11-30T08:12:20.402Z,1022.09
2022-11-30T08:13:20.414Z,1022.09
2022-11-30T08:14:20.385Z,1022.09
2022-11-30T08:15:21.489Z,1022.11
2022-11-30T08:16:20.461Z,1022.09
2022-11-30T08:17:20.345Z,1022.10
2022-11-30T08:18:20.328Z,1022.09
2022-11-30T08:19:20.315Z,1022.12
2022-11-30T08:20:20.332Z,1022.19
2022-11-30T08:21:20.307Z,1022.19
2022-11-30T08:22:20.275Z,1022.19
2022-11-30T08:23:20.289Z,1022.13
2022-11-30T08:24:20.354Z,1022.17
2022-11-30T08:25:20.247Z,1022.20
2022-11-30T08:26:20.225Z,1022.18
2022-11-30T08:27:20.217Z,1022.16
2022-11-30T08:28:20.200Z,1022.17
2022-11-30T08:29:20.216Z,1022.21
2022-11-30T08:30:20.301Z,1022.22
2022-11-30T08:31:20.312Z,1022.20
2022-11-30T08:32:20.152Z,1022.22
2022-11-30T08:33:20.229Z,1022.24
2022-11-30T08:34:20.235Z,1022.26
2022-11-30T08:35:20.166Z,1022.28
2022-11-30T08:36:20.276Z,1022.30
2022-11-30T08:37:20.223Z,1022.32
2022-11-30T08:38:20.120Z,1022.34
2022-11-30T08:39:20.096Z,1022.33
2022-11-30T08:40:20.109Z,1022.34
2022-11-30T08:41:20.069Z,1022.33
2022-11-30T08:42:20.125Z,1022.39
2022-11-30T08:43:20.049Z,1022.43
2022-11-30T08:44:20.031Z,1022.42
2022-11-30T08:45:20.233Z,1022.43
2022-11-30T08:47:21.371Z,1022.43
2022-11-30T08:48:20.041Z,1022.47
2022-11-30T08:49:21.962Z,1022.48
2022-11-30T08:50:20.045Z,1022.46
2022-11-30T08:51:20.038Z,1022.46
2022-11-30T08:52:20.113Z,1022.41
2022-11-30T08:53:19.978Z,1022.45
2022-11-30T08:54:19.982Z,1022.47
2022-11-30T08:55:20.040Z,1022.48
2022-11-30T08:56:19.936Z,1022.48
2022-11-30T08:57:19.922Z,1022.51
2022-11-30T08:58:20.160Z,1022.53
2022-11-30T08:59:19.950Z,1022.55
2022-11-30T09:00:19.849Z,1022.54
2022-11-30T09:01:19.896Z,1022.53
2022-11-30T09:02:20.075Z,1022.56
2022-11-30T09:03:19.850Z,1022.59
2022-11-30T09:04:19.923Z,1022.60
2022-11-30T09:05:19.930Z,1022.56
2022-11-30T09:06:19.788Z,1022.57
2022-11-30T09:07:20.203Z,1022.60
2022-11-30T09:08:19.772Z,1022.60
2022-11-30T09:09:19.785Z,1022.57
2022-11-30T09:10:19.722Z,1022.60
2022-11-30T09:11:20.080Z,1022.59
2022-11-30T09:12:19.756Z,1022.62
2022-11-30T09:13:19.794Z,1022.65
2022-11-30T09:14:19.691Z,1022.62
2022-11-30T09:15:19.614Z,1022.61
2022-11-30T09:16:19.697Z,1022.61
2022-11-30T09:17:19.741Z,1022.62
2022-11-30T09:18:20.039Z,1022.64
2022-11-30T09:19:19.598Z,1022.62
2022-11-30T09:20:19.624Z,1022.63
2022-11-30T09:21:19.879Z,1022.63
2022-11-30T09:22:19.663Z,1022.66
2022-11-30T09:23:19.580Z,1022.66
2022-11-30T09:24:19.613Z,1022.63
2022-11-30T09:25:28.032Z,1022.64
2022-11-30T09:26:19.492Z,1022.64
2022-11-30T09:27:19.495Z,1022.67
2022-11-30T09:28:19.445Z,1022.68
2022-11-30T09:29:19.541Z,1022.64
2022-11-30T09:30:19.468Z,1022.63
2022-11-30T09:31:26.971Z,1022.69
2022-11-30T09:32:29.150Z,1022.65
2022-11-30T09:33:29.343Z,1022.66
2022-11-30T09:34:19.393Z,1022.68
2022-11-30T09:35:26.911Z,1022.69
2022-11-30T09:36:26.891Z,1022.65
2022-11-30T09:37:26.898Z,1022.67
2022-11-30T09:38:28.083Z,1022.67
2022-11-30T09:39:19.332Z,1022.65
2022-11-30T09:40:19.303Z,1022.66
2022-11-30T09:41:19.280Z,1022.64
2022-11-30T09:42:19.298Z,1022.61
2022-11-30T09:43:19.263Z,1022.60
2022-11-30T09:44:19.265Z,1022.66
2022-11-30T09:45:19.237Z,1022.57
2022-11-30T09:46:19.299Z,1022.61
2022-11-30T09:47:19.253Z,1022.58
2022-11-30T09:48:19.268Z,1022.59
2022-11-30T09:49:19.181Z,1022.60
2022-11-30T09:50:19.289Z,1022.62
2022-11-30T09:51:19.267Z,1022.63
2022-11-30T09:52:19.147Z,1022.63
2022-11-30T09:53:22.041Z,1022.56
2022-11-30T09:54:20.106Z,1022.60
2022-11-30T09:55:19.127Z,1022.58
2022-11-30T09:56:19.176Z,1022.54
2022-11-30T09:57:19.201Z,1022.56
2022-11-30T09:58:19.202Z,1022.60
2022-11-30T09:59:19.065Z,1022.58
2022-11-30T10:00:19.097Z,1022.56
2022-11-30T10:01:19.240Z,1022.59
2022-11-30T10:02:19.196Z,1022.56
2022-11-30T10:03:19.121Z,1022.64
2022-11-30T10:04:19.153Z,1022.61
2022-11-30T10:05:19.012Z,1022.61
2022-11-30T10:06:18.997Z,1022.61
2022-11-30T10:07:19.123Z,1022.62
2022-11-30T10:08:19.043Z,1022.55
2022-11-30T10:09:18.936Z,1022.55
2022-11-30T10:10:34.625Z,1022.60
2022-11-30T10:11:19.950Z,1022.59
2022-11-30T10:12:18.907Z,1022.54
2022-11-30T10:13:18.986Z,1022.60
2022-11-30T10:14:18.892Z,1022.56
2022-11-30T10:15:18.887Z,1022.55
2022-11-30T10:16:19.072Z,1022.56
2022-11-30T10:17:18.854Z,1022.53
2022-11-30T10:18:18.833Z,1022.53
2022-11-30T10:19:18.963Z,1022.54
2022-11-30T10:20:18.877Z,1022.49
2022-11-30T10:21:18.865Z,1022.49
2022-11-30T10:22:18.961Z,1022.45
2022-11-30T10:23:19.966Z,1022.45
2022-11-30T10:24:18.961Z,1022.44
2022-11-30T10:25:18.746Z,1022.42
2022-11-30T10:26:18.756Z,1022.46
2022-11-30T10:27:18.704Z,1022.43
2022-11-30T10:28:45.538Z,1022.41
2022-11-30T10:29:19.728Z,1022.42
2022-11-30T10:30:18.659Z,1022.40
2022-11-30T10:31:18.752Z,1022.43
2022-11-30T10:32:18.736Z,1022.44
2022-11-30T10:33:18.652Z,1022.42
2022-11-30T10:34:18.654Z,1022.41
2022-11-30T10:35:18.624Z,1022.45
2022-11-30T10:36:18.578Z,1022.46
2022-11-30T10:37:18.576Z,1022.45
2022-11-30T10:38:18.597Z,1022.47
2022-11-30T10:39:18.570Z,1022.46
2022-11-30T10:40:18.565Z,1022.48
2022-11-30T10:41:18.573Z,1022.43
2022-11-30T10:42:18.597Z,1022.50
2022-11-30T10:43:18.590Z,1022.45
2022-11-30T10:44:18.509Z,1022.45
2022-11-30T10:45:18.492Z,1022.44
2022-11-30T10:46:31.555Z,1022.44
2022-11-30T10:47:26.305Z,1022.44
2022-11-30T10:48:18.435Z,1022.43
2022-11-30T10:49:18.440Z,1022.41
2022-11-30T10:50:18.435Z,1022.43
2022-11-30T10:51:18.396Z,1022.43
2022-11-30T10:52:18.424Z,1022.39
2022-11-30T10:53:18.402Z,1022.40
2022-11-30T10:54:18.368Z,1022.42
2022-11-30T10:55:18.335Z,1022.44
2022-11-30T10:56:18.350Z,1022.44
2022-11-30T10:57:18.358Z,1022.43
2022-11-30T10:58:18.366Z,1022.45
2022-11-30T10:59:18.303Z,1022.48
2022-11-30T11:00:18.340Z,1022.46
2022-11-30T11:01:18.356Z,1022.50
2022-11-30T11:02:18.302Z,1022.44
2022-11-30T11:03:18.291Z,1022.44
2022-11-30T11:04:18.269Z,1022.43
2022-11-30T11:05:18.247Z,1022.44
2022-11-30T11:06:18.264Z,1022.47
2022-11-30T11:07:18.288Z,1022.43
2022-11-30T11:08:18.425Z,1022.43
2022-11-30T11:09:18.212Z,1022.41
2022-11-30T11:10:18.172Z,1022.45
2022-11-30T11:11:18.166Z,1022.42
2022-11-30T11:12:18.175Z,1022.42
2022-11-30T11:13:18.117Z,1022.37
2022-11-30T11:14:18.172Z,1022.40
2022-11-30T11:15:18.093Z,1022.39
2022-11-30T11:16:18.189Z,1022.39
2022-11-30T11:17:18.065Z,1022.36
2022-11-30T11:18:18.102Z,1022.39
2022-11-30T11:19:18.079Z,1022.36
2022-11-30T11:20:18.067Z,1022.40
2022-11-30T11:21:18.069Z,1022.38
2022-11-30T11:22:18.034Z,1022.40
2022-11-30T11:23:18.036Z,1022.41
2022-11-30T11:24:18.027Z,1022.42
2022-11-30T11:25:18.023Z,1022.42
2022-11-30T11:26:18.015Z,1022.40
2022-11-30T11:27:17.979Z,1022.40
2022-11-30T11:28:17.946Z,1022.40
2022-11-30T11:29:17.928Z,1022.40
2022-11-30T11:30:17.969Z,1022.39
2022-11-30T11:31:18.085Z,1022.44
2022-11-30T11:32:17.894Z,1022.43
2022-11-30T11:33:17.884Z,1022.43
2022-11-30T11:34:17.853Z,1022.44
2022-11-30T11:35:17.864Z,1022.44
2022-11-30T11:36:17.873Z,1022.41
2022-11-30T11:37:17.816Z,1022.40
2022-11-30T11:38:17.825Z,1022.40
2022-11-30T11:39:17.799Z,1022.43
2022-11-30T11:40:17.828Z,1022.40
2022-11-30T11:41:17.788Z,1022.43
2022-11-30T11:42:21.987Z,1022.42
2022-11-30T11:43:17.785Z,1022.42
2022-11-30T11:44:17.738Z,1022.43
2022-11-30T11:45:17.743Z,1022.43
2022-11-30T11:46:17.780Z,1022.42
2022-11-30T11:47:17.750Z,1022.42
2022-11-30T11:48:17.678Z,1022.42
2022-11-30T11:49:17.825Z,1022.45
2022-11-30T11:50:23.567Z,1022.44
2022-11-30T11:51:18.646Z,1022.43
2022-11-30T11:52:17.658Z,1022.45
2022-11-30T11:53:17.699Z,1022.44
2022-11-30T11:54:17.687Z,1022.48
2022-11-30T11:55:17.589Z,1022.53
2022-11-30T11:56:17.616Z,1022.51
2022-11-30T11:57:17.624Z,1022.47
2022-11-30T11:58:17.627Z,1022.49
2022-11-30T11:59:17.678Z,1022.46
2022-11-30T12:00:17.895Z,1022.48
2022-11-30T12:01:39.342Z,1022.53
2022-11-30T12:02:18.619Z,1022.48
2022-11-30T12:03:17.556Z,1022.49
2022-11-30T12:04:17.592Z,1022.47
2022-11-30T12:05:17.511Z,1022.46
2022-11-30T12:06:17.487Z,1022.47
2022-11-30T12:07:18.365Z,1022.47
2022-11-30T12:08:17.472Z,1022.47
2022-11-30T12:09:17.431Z,1022.45
2022-11-30T12:10:50.167Z,1022.51
2022-11-30T12:11:18.416Z,1022.51
2022-11-30T12:12:17.408Z,1022.54
2022-11-30T12:13:17.410Z,1022.52
2022-11-30T12:14:17.426Z,1022.51
2022-11-30T12:15:17.353Z,1022.48
2022-11-30T12:16:17.437Z,1022.53
2022-11-30T12:17:17.336Z,1022.49
2022-11-30T12:18:23.621Z,1022.51
2022-11-30T12:19:18.318Z,1022.53
2022-11-30T12:20:17.362Z,1022.48
2022-11-30T12:21:17.295Z,1022.52
2022-11-30T12:22:17.282Z,1022.53
2022-11-30T12:23:17.289Z,1022.49
2022-11-30T12:24:17.246Z,1022.52
2022-11-30T12:25:17.250Z,1022.54
2022-11-30T12:26:17.322Z,1022.51
2022-11-30T12:27:17.212Z,1022.53
2022-11-30T12:28:17.212Z,1022.50
2022-11-30T12:29:17.179Z,1022.46
2022-11-30T12:30:17.183Z,1022.45
2022-11-30T12:31:17.266Z,1022.46
2022-11-30T12:32:17.157Z,1022.47
2022-11-30T12:33:17.134Z,1022.43
2022-11-30T12:34:17.159Z,1022.47
2022-11-30T12:35:17.098Z,1022.44
2022-11-30T12:36:17.131Z,1022.44
2022-11-30T12:37:17.112Z,1022.45
2022-11-30T12:38:17.128Z,1022.51
2022-11-30T12:39:17.081Z,1022.52
2022-11-30T12:40:17.059Z,1022.54
2022-11-30T12:41:17.092Z,1022.52
2022-11-30T12:42:17.054Z,1022.54
2022-11-30T12:43:17.061Z,1022.54
2022-11-30T12:44:17.021Z,1022.54
2022-11-30T12:45:16.988Z,1022.53
2022-11-30T12:46:17.037Z,1022.56
2022-11-30T12:47:16.967Z,1022.54
2022-11-30T12:48:17.053Z,1022.55
2022-11-30T12:49:16.990Z,1022.56
2022-11-30T12:50:16.946Z,1022.51
2022-11-30T12:51:16.933Z,1022.57
2022-11-30T12:52:16.951Z,1022.58
2022-11-30T12:53:16.895Z,1022.58
2022-11-30T12:54:16.882Z,1022.61
2022-11-30T12:55:16.905Z,1022.60
2022-11-30T12:56:16.881Z,1022.64
2022-11-30T12:57:16.870Z,1022.58
2022-11-30T12:58:16.846Z,1022.62
2022-11-30T12:59:16.851Z,1022.60
2022-11-30T13:00:16.826Z,1022.63
2022-11-30T13:01:16.818Z,1022.68
2022-11-30T13:02:16.866Z,1022.65
2022-11-30T13:03:16.760Z,1022.66
2022-11-30T13:04:16.762Z,1022.63
2022-11-30T13:05:16.746Z,1022.66
2022-11-30T13:06:16.714Z,1022.68
2022-11-30T13:07:16.718Z,1022.66
2022-11-30T13:08:16.774Z,1022.69
2022-11-30T13:09:16.699Z,1022.68
2022-11-30T13:10:16.755Z,1022.66
2022-11-30T13:11:16.666Z,1022.66
2022-11-30T13:12:16.664Z,1022.67
2022-11-30T13:13:16.679Z,1022.64
2022-11-30T13:14:16.661Z,1022.65
2022-11-30T13:15:16.709Z,1022.62
2022-11-30T13:16:16.671Z,1022.65
2022-11-30T13:17:16.647Z,1022.61
2022-11-30T13:18:16.600Z,1022.66
2022-11-30T13:19:16.574Z,1022.66
2022-11-30T13:20:16.573Z,1022.64
2022-11-30T13:21:16.626Z,1022.64
2022-11-30T13:22:16.528Z,1022.65
2022-11-30T13:23:16.524Z,1022.70
2022-11-30T13:24:16.516Z,1022.70
2022-11-30T13:25:16.485Z,1022.70
2022-11-30T13:26:16.491Z,1022.69
2022-11-30T13:27:16.510Z,1022.71
2022-11-30T13:28:16.460Z,1022.75
2022-11-30T13:29:16.578Z,1022.70
2022-11-30T13:30:16.466Z,1022.74
2022-11-30T13:31:16.471Z,1022.69
2022-11-30T13:32:55.322Z,1022.73